Time;durP1;ratioP1;P1;durP2;ratioP2;P2;SDS_P1;SDS_P2;PMS_P1;PMS_P2;Temp;Humidity;BMP_temperature;BMP_pressure;BME280_temperature;BME280_humidity;BME280_pressure;Samples;Min_cycle;Max_cycle;Signal;HPM_P1;HPM_P2
2023/04/21 00:00:23;;;;;;;35.60;22.02;;;;;;;;;;5058018;28;20155;-69
2023/04/21 00:02:50;;;;;;;37.53;22.08;;;;;;;;;;5055270;28;20676;-69
2023/04/21 00:05:16;;;;;;;32.90;21.63;;;;;;;;;;5037226;28;20753;-69
2023/04/21 00:07:42;;;;;;;34.83;22.65;;;;;;;;;;5035841;28;20047;-69
2023/04/21 00:10:10;;;;;;;30.52;21.40;;;;;;;;;;5039420;28;20071;-69
2023/04/21 00:12:37;;;;;;;31.23;21.77;;;;;;;;;;5061936;28;20125;-69
2023/04/21 00:15:04;;;;;;;32.90;20.73;;;;;;;;;;5057286;28;20483;-69
2023/04/21 00:17:30;;;;;;;29.08;19.80;;;;;;;;;;5037329;28;20521;-69
2023/04/21 00:19:57;;;;;;;32.22;20.23;;;;;;;;;;5055401;28;20049;-69
2023/04/21 00:22:23;;;;;;;32.42;19.63;;;;;;;;;;5055051;28;20484;-69
2023/04/21 00:24:51;;;;;;;29.73;18.67;;;;;;;;;;5037071;28;20044;-69
2023/04/21 00:27:17;;;;;;;28.42;19.67;;;;;;;;;;5056634;28;20062;-69
2023/04/21 00:29:43;;;;;;;30.92;20.40;;;;;;;;;;5054985;28;20194;-69
2023/04/21 00:32:10;;;;;;;32.40;18.92;;;;;;;;;;5033689;28;20053;-69
2023/04/21 00:34:36;;;;;;;28.65;18.55;;;;;;;;;;5056713;28;20053;-69
2023/04/21 00:37:03;;;;;;;28.65;19.10;;;;;;;;;;5056939;28;20053;-69
2023/04/21 00:39:29;;;;;;;34.30;18.17;;;;;;;;;;5037145;28;20048;-69
2023/04/21 00:41:56;;;;;;;28.65;18.33;;;;;;;;;;5037234;28;20113;-66
2023/04/21 00:44:22;;;;;;;29.85;18.40;;;;;;;;;;5036845;28;20048;-69
2023/04/21 00:46:48;;;;;;;29.58;17.70;;;;;;;;;;5053219;28;20048;-69
2023/04/21 00:49:15;;;;;;;28.60;16.27;;;;;;;;;;5032964;28;20175;-69
2023/04/21 00:51:41;;;;;;;32.33;18.08;;;;;;;;;;5036583;28;20472;-69
2023/04/21 00:54:07;;;;;;;42.58;18.17;;;;;;;;;;5056801;28;20063;-69
2023/04/21 00:56:35;;;;;;;23.00;16.60;;;;;;;;;;5051828;28;20041;-69
2023/04/21 00:59:02;;;;;;;31.67;18.60;;;;;;;;;;5030284;28;20059;-69
2023/04/21 01:01:29;;;;;;;32.83;18.33;;;;;;;;;;5052821;28;20456;-69
2023/04/21 01:03:58;;;;;;;29.25;18.98;;;;;;;;;;5051792;28;20048;-69
2023/04/21 01:06:25;;;;;;;31.63;18.48;;;;;;;;;;5034000;28;20110;-68
2023/04/21 01:08:52;;;;;;;31.13;17.73;;;;;;;;;;5036316;28;20052;-69
2023/04/21 01:11:19;;;;;;;26.88;17.40;;;;;;;;;;5040685;28;20082;-69
2023/04/21 01:13:45;;;;;;;31.25;19.60;;;;;;;;;;5048223;28;21277;-69
2023/04/21 01:16:15;;;;;;;29.95;17.45;;;;;;;;;;5027372;28;20143;-69
2023/04/21 01:18:41;;;;;;;27.38;18.20;;;;;;;;;;5053603;28;21665;-69
2023/04/21 01:21:08;;;;;;;26.90;18.27;;;;;;;;;;5058438;28;20074;-69
2023/04/21 01:23:34;;;;;;;26.52;18.48;;;;;;;;;;5038389;28;20526;-69
2023/04/21 01:26:00;;;;;;;28.83;18.58;;;;;;;;;;5028671;28;20076;-69
2023/04/21 01:28:26;;;;;;;29.60;18.85;;;;;;;;;;5023039;28;20523;-68
2023/04/21 01:30:52;;;;;;;32.75;18.75;;;;;;;;;;5043316;28;20187;-69
2023/04/21 01:33:19;;;;;;;27.05;18.65;;;;;;;;;;5050165;28;20058;-69
2023/04/21 01:35:46;;;;;;;28.17;16.90;;;;;;;;;;5052424;28;20057;-69
2023/04/21 01:38:12;;;;;;;30.83;17.98;;;;;;;;;;5046862;28;20041;-69
2023/04/21 01:40:40;;;;;;;33.63;19.45;;;;;;;;;;5019694;28;20110;-69
2023/04/21 01:43:07;;;;;;;27.98;18.08;;;;;;;;;;5052537;28;20136;-69
2023/04/21 01:45:33;;;;;;;32.67;18.92;;;;;;;;;;5051846;28;20092;-68
2023/04/21 01:47:59;;;;;;;33.03;18.98;;;;;;;;;;5048319;28;20055;-68
2023/04/21 01:50:25;;;;;;;31.17;19.30;;;;;;;;;;5032080;28;20052;-68
2023/04/21 01:52:51;;;;;;;26.95;18.45;;;;;;;;;;5047868;28;20110;-68
2023/04/21 01:55:17;;;;;;;32.22;18.35;;;;;;;;;;5057202;28;20102;-69
2023/04/21 01:57:43;;;;;;;26.50;18.08;;;;;;;;;;5042501;28;20048;-69
2023/04/21 02:00:10;;;;;;;31.08;19.10;;;;;;;;;;5059954;28;20041;-69
2023/04/21 02:02:36;;;;;;;30.00;18.58;;;;;;;;;;5061663;28;20044;-69
2023/04/21 02:05:02;;;;;;;28.30;19.25;;;;;;;;;;5058387;28;20044;-69
2023/04/21 02:07:29;;;;;;;32.20;19.98;;;;;;;;;;5044191;28;20056;-69
2023/04/21 02:09:55;;;;;;;31.83;19.15;;;;;;;;;;5055779;28;20086;-69
2023/04/21 02:12:21;;;;;;;25.60;17.77;;;;;;;;;;5056973;28;20051;-69
2023/04/21 02:14:48;;;;;;;30.60;18.20;;;;;;;;;;5059892;28;20037;-69
2023/04/21 02:17:15;;;;;;;28.90;18.35;;;;;;;;;;5042669;28;20071;-69
2023/04/21 02:19:41;;;;;;;27.30;18.08;;;;;;;;;;5066762;28;20056;-69
2023/04/21 02:22:09;;;;;;;31.40;18.65;;;;;;;;;;5046001;28;20143;-69
2023/04/21 02:24:35;;;;;;;28.30;18.08;;;;;;;;;;5046056;28;20051;-69
2023/04/21 02:27:02;;;;;;;29.30;17.65;;;;;;;;;;5046475;28;20048;-69
2023/04/21 02:29:28;;;;;;;36.00;19.60;;;;;;;;;;5062290;28;20045;-69
2023/04/21 02:31:54;;;;;;;26.92;18.00;;;;;;;;;;5061145;28;20454;-69
2023/04/21 02:34:20;;;;;;;28.80;18.38;;;;;;;;;;5065628;28;20396;-69
2023/04/21 02:36:46;;;;;;;29.13;18.55;;;;;;;;;;5063162;28;20036;-69
2023/04/21 02:39:12;;;;;;;26.13;18.15;;;;;;;;;;5044948;28;20037;-69
2023/04/21 02:41:39;;;;;;;28.13;17.88;;;;;;;;;;5047614;28;20128;-69
2023/04/21 02:44:05;;;;;;;30.98;18.52;;;;;;;;;;5058707;28;20041;-69
2023/04/21 02:46:32;;;;;;;27.83;18.65;;;;;;;;;;5041449;28;20055;-69
2023/04/21 02:48:58;;;;;;;27.85;18.85;;;;;;;;;;5043004;28;20388;-69
2023/04/21 02:51:24;;;;;;;33.78;19.13;;;;;;;;;;5059887;28;20041;-69
2023/04/21 02:53:50;;;;;;;32.75;18.20;;;;;;;;;;5058799;28;21419;-69
2023/04/21 02:56:16;;;;;;;31.27;20.48;;;;;;;;;;5042997;28;20055;-69
2023/04/21 02:58:43;;;;;;;37.33;19.48;;;;;;;;;;5058697;28;20040;-69
2023/04/21 03:01:09;;;;;;;28.58;20.13;;;;;;;;;;5040651;28;20036;-69
2023/04/21 03:03:35;;;;;;;32.60;20.02;;;;;;;;;;5043942;28;20507;-69
2023/04/21 03:06:02;;;;;;;30.15;19.52;;;;;;;;;;5059630;28;20111;-69
2023/04/21 03:08:29;;;;;;;28.65;19.77;;;;;;;;;;5062004;28;20045;-69
2023/04/21 03:10:55;;;;;;;32.08;21.48;;;;;;;;;;5059707;28;20424;-69
2023/04/21 03:13:22;;;;;;;31.13;20.48;;;;;;;;;;5061267;28;20178;-69
2023/04/21 03:15:48;;;;;;;33.30;21.67;;;;;;;;;;5060417;28;20048;-69
2023/04/21 03:18:14;;;;;;;36.47;21.75;;;;;;;;;;5058367;28;20090;-69
2023/04/21 03:20:40;;;;;;;36.28;20.75;;;;;;;;;;5042872;28;20048;-69
2023/04/21 03:23:06;;;;;;;33.15;21.05;;;;;;;;;;5043031;28;20044;-69
2023/04/21 03:25:32;;;;;;;37.47;22.33;;;;;;;;;;5059648;28;20483;-69
2023/04/21 03:27:59;;;;;;;34.42;22.10;;;;;;;;;;5038027;28;20075;-69
2023/04/21 03:30:25;;;;;;;34.05;21.70;;;;;;;;;;5054227;28;20040;-69
2023/04/21 03:32:51;;;;;;;37.35;22.58;;;;;;;;;;5037747;28;20449;-69
2023/04/21 03:35:17;;;;;;;33.13;22.00;;;;;;;;;;5056655;28;20036;-69
2023/04/21 03:37:43;;;;;;;37.97;23.42;;;;;;;;;;5059981;28;20071;-69
2023/04/21 03:40:10;;;;;;;38.47;24.33;;;;;;;;;;5058011;28;20049;-69
2023/04/21 03:42:36;;;;;;;33.90;22.40;;;;;;;;;;5043942;28;20127;-69
2023/04/21 03:45:03;;;;;;;31.30;20.65;;;;;;;;;;5040780;28;20072;-69
2023/04/21 03:47:29;;;;;;;35.35;22.05;;;;;;;;;;5057918;28;20067;-69
2023/04/21 03:49:55;;;;;;;34.72;22.17;;;;;;;;;;5038647;28;20063;-69
2023/04/21 03:52:22;;;;;;;32.40;21.77;;;;;;;;;;5040423;28;20056;-69
2023/04/21 03:54:48;;;;;;;34.40;21.67;;;;;;;;;;5040582;28;20109;-69
2023/04/21 03:57:14;;;;;;;35.28;22.05;;;;;;;;;;5060938;28;20040;-69
2023/04/21 03:59:40;;;;;;;35.65;20.45;;;;;;;;;;5057862;28;20399;-69
2023/04/21 04:02:06;;;;;;;36.53;21.45;;;;;;;;;;5059581;28;20701;-69
2023/04/21 04:04:33;;;;;;;34.72;21.73;;;;;;;;;;5042629;28;20123;-69
2023/04/21 04:06:59;;;;;;;31.92;20.73;;;;;;;;;;5060287;28;20048;-69
2023/04/21 04:09:25;;;;;;;35.85;21.48;;;;;;;;;;5055660;28;20131;-68
2023/04/21 04:11:51;;;;;;;33.63;20.45;;;;;;;;;;5057318;28;20036;-69
2023/04/21 04:14:17;;;;;;;37.28;20.02;;;;;;;;;;5042302;28;20044;-69
2023/04/21 04:16:43;;;;;;;31.23;19.65;;;;;;;;;;5063023;28;20058;-69
2023/04/21 04:19:10;;;;;;;37.15;20.23;;;;;;;;;;5063024;28;20059;-69
2023/04/21 04:21:36;;;;;;;37.47;19.65;;;;;;;;;;5043518;28;20045;-69
2023/04/21 04:24:04;;;;;;;31.98;18.23;;;;;;;;;;5066169;28;20110;-69
2023/04/21 04:26:32;;;;;;;29.65;18.15;;;;;;;;;;5064812;28;20056;-69
2023/04/21 04:29:01;;;;;;;31.50;17.77;;;;;;;;;;5033525;28;21057;-69
2023/04/21 04:31:29;;;;;;;28.50;18.45;;;;;;;;;;5037421;28;20060;-69
2023/04/21 04:33:55;;;;;;;29.20;18.25;;;;;;;;;;5063433;28;20032;-69
2023/04/21 04:36:21;;;;;;;27.48;18.23;;;;;;;;;;5060645;28;20036;-69
2023/04/21 04:38:47;;;;;;;30.38;18.05;;;;;;;;;;5045877;28;20048;-69
2023/04/21 04:41:14;;;;;;;29.45;17.90;;;;;;;;;;5062762;28;20439;-69
2023/04/21 04:43:41;;;;;;;32.53;19.27;;;;;;;;;;5043914;28;20231;-69
2023/04/21 04:46:09;;;;;;;32.72;18.20;;;;;;;;;;5060571;28;20062;-69
2023/04/21 04:48:36;;;;;;;25.88;15.40;;;;;;;;;;5061162;28;20380;-69
2023/04/21 04:51:02;;;;;;;26.70;16.67;;;;;;;;;;5062216;28;20032;-69
2023/04/21 04:53:28;;;;;;;28.85;17.02;;;;;;;;;;5041948;28;20373;-69
2023/04/21 04:55:56;;;;;;;29.42;17.27;;;;;;;;;;5043978;28;20048;-73
2023/04/21 04:58:22;;;;;;;29.88;17.90;;;;;;;;;;5039048;28;20094;-69
2023/04/21 05:00:48;;;;;;;26.75;16.98;;;;;;;;;;5063505;28;20073;-69
2023/04/21 05:03:14;;;;;;;24.90;17.02;;;;;;;;;;5054435;28;20051;-77
2023/04/21 05:05:41;;;;;;;27.33;16.20;;;;;;;;;;5053172;28;20419;-69
2023/04/21 05:08:07;;;;;;;29.17;16.13;;;;;;;;;;5058413;28;20048;-69
2023/04/21 05:10:33;;;;;;;30.15;17.23;;;;;;;;;;5042541;28;20039;-69
2023/04/21 05:13:00;;;;;;;27.17;16.75;;;;;;;;;;5057756;28;20422;-69
2023/04/21 05:15:26;;;;;;;30.35;17.02;;;;;;;;;;5057162;28;20047;-69
2023/04/21 05:17:52;;;;;;;23.02;15.27;;;;;;;;;;5061388;28;20045;-69
2023/04/21 05:20:18;;;;;;;23.70;14.40;;;;;;;;;;5042207;28;20106;-68
2023/04/21 05:22:44;;;;;;;25.90;15.45;;;;;;;;;;5060215;28;20492;-68
2023/04/21 05:25:14;;;;;;;28.38;15.98;;;;;;;;;;5040072;28;20210;-68
2023/04/21 05:27:40;;;;;;;25.23;14.45;;;;;;;;;;5059104;28;20048;-68
2023/04/21 05:30:07;;;;;;;28.52;14.73;;;;;;;;;;5054304;28;20068;-68
2023/04/21 05:32:33;;;;;;;27.73;16.23;;;;;;;;;;5053695;28;20144;-68
2023/04/21 05:34:59;;;;;;;30.65;16.02;;;;;;;;;;5027867;28;20047;-68
2023/04/21 05:37:26;;;;;;;26.90;16.00;;;;;;;;;;5058311;28;20500;-64
2023/04/21 05:39:52;;;;;;;24.58;15.52;;;;;;;;;;5042978;28;20136;-64
2023/04/21 05:42:18;;;;;;;26.40;15.27;;;;;;;;;;5060971;28;20067;-68
2023/04/21 05:44:44;;;;;;;25.80;15.55;;;;;;;;;;5041750;28;20044;-67
2023/04/21 05:47:10;;;;;;;26.00;15.23;;;;;;;;;;5057603;28;20109;-68
2023/04/21 05:49:36;;;;;;;27.17;14.55;;;;;;;;;;5060177;28;20063;-68
2023/04/21 05:52:03;;;;;;;24.80;14.85;;;;;;;;;;5039126;28;20041;-67
2023/04/21 05:54:29;;;;;;;29.42;15.45;;;;;;;;;;5038107;28;20064;-67
2023/04/21 05:56:55;;;;;;;29.13;15.20;;;;;;;;;;5061229;28;20047;-66
2023/04/21 05:59:21;;;;;;;26.55;14.35;;;;;;;;;;5057680;28;20064;-67
2023/04/21 06:01:48;;;;;;;25.75;15.95;;;;;;;;;;5041575;28;20045;-67
2023/04/21 06:04:14;;;;;;;21.15;13.63;;;;;;;;;;5042861;28;20063;-68
2023/04/21 06:06:40;;;;;;;22.67;14.38;;;;;;;;;;5055320;28;20048;-67
2023/04/21 06:09:06;;;;;;;21.50;13.70;;;;;;;;;;5040877;28;20082;-67
2023/04/21 06:11:33;;;;;;;22.23;13.93;;;;;;;;;;5059599;28;20045;-67
2023/04/21 06:14:00;;;;;;;27.15;14.18;;;;;;;;;;5041577;28;20041;-67
2023/04/21 06:16:26;;;;;;;30.00;14.52;;;;;;;;;;5063975;28;20454;-67
2023/04/21 06:18:53;;;;;;;24.35;12.48;;;;;;;;;;5064272;28;20143;-66
2023/04/21 06:21:19;;;;;;;20.60;12.98;;;;;;;;;;5044206;28;20049;-67
2023/04/21 06:23:45;;;;;;;21.48;13.68;;;;;;;;;;5046821;28;20447;-67
2023/04/21 06:26:12;;;;;;;20.38;12.25;;;;;;;;;;5063687;28;20052;-67
2023/04/21 06:28:38;;;;;;;22.92;13.20;;;;;;;;;;5043858;28;20053;-67
2023/04/21 06:31:05;;;;;;;28.50;13.30;;;;;;;;;;5065190;28;20032;-67
2023/04/21 06:33:32;;;;;;;23.40;12.48;;;;;;;;;;5045172;28;20138;-67
2023/04/21 06:35:58;;;;;;;27.35;12.35;;;;;;;;;;5062118;28;20044;-67
2023/04/21 06:38:24;;;;;;;24.95;13.15;;;;;;;;;;5064756;28;20047;-67
2023/04/21 06:40:50;;;;;;;21.48;12.90;;;;;;;;;;5058798;28;20048;-68
2023/04/21 06:43:16;;;;;;;20.88;13.18;;;;;;;;;;5064200;28;20535;-67
2023/04/21 06:45:43;;;;;;;24.70;11.88;;;;;;;;;;5061145;28;20036;-67
2023/04/21 06:48:09;;;;;;;24.20;12.15;;;;;;;;;;5040814;28;20055;-68
2023/04/21 06:50:35;;;;;;;24.13;12.93;;;;;;;;;;5041331;28;20048;-68
2023/04/21 06:53:01;;;;;;;19.58;11.90;;;;;;;;;;5039078;28;20056;-67
2023/04/21 06:55:27;;;;;;;23.13;12.60;;;;;;;;;;5057529;28;20118;-68
2023/04/21 06:57:54;;;;;;;24.77;12.95;;;;;;;;;;5043752;28;20052;-67
2023/04/21 07:00:20;;;;;;;23.70;12.38;;;;;;;;;;5042411;28;20052;-67
2023/04/21 07:02:46;;;;;;;21.65;11.98;;;;;;;;;;5057491;28;20048;-67
2023/04/21 07:05:12;;;;;;;21.98;12.45;;;;;;;;;;5059279;28;20044;-67
2023/04/21 07:07:38;;;;;;;22.90;12.75;;;;;;;;;;5042909;28;20044;-67
2023/04/21 07:10:05;;;;;;;17.80;12.20;;;;;;;;;;5059505;28;20976;-66
2023/04/21 07:12:31;;;;;;;20.10;11.55;;;;;;;;;;5038596;28;20510;-67
2023/04/21 07:14:57;;;;;;;24.67;13.13;;;;;;;;;;5060289;28;20040;-67
2023/04/21 07:17:23;;;;;;;19.50;12.90;;;;;;;;;;5054981;28;20123;-67
2023/04/21 07:19:49;;;;;;;20.60;12.65;;;;;;;;;;5056512;28;20059;-67
2023/04/21 07:22:15;;;;;;;21.02;11.73;;;;;;;;;;5040999;28;20044;-67
2023/04/21 07:24:41;;;;;;;21.42;12.15;;;;;;;;;;5040811;28;20108;-68
2023/04/21 07:27:08;;;;;;;23.52;13.93;;;;;;;;;;5065097;28;20044;-68
2023/04/21 07:29:34;;;;;;;19.13;11.43;;;;;;;;;;5059635;28;20109;-68
2023/04/21 07:32:00;;;;;;;19.45;11.93;;;;;;;;;;5063013;28;20287;-67
2023/04/21 07:34:26;;;;;;;21.95;12.20;;;;;;;;;;5042706;28;20135;-68
2023/04/21 07:36:52;;;;;;;21.80;12.65;;;;;;;;;;5042010;28;20048;-68
2023/04/21 07:39:18;;;;;;;26.25;12.60;;;;;;;;;;5039190;28;20210;-68
2023/04/21 07:41:45;;;;;;;22.15;13.00;;;;;;;;;;5059577;28;20172;-68
2023/04/21 07:44:11;;;;;;;19.48;12.07;;;;;;;;;;5039482;28;20048;-68
2023/04/21 07:46:37;;;;;;;23.67;12.65;;;;;;;;;;5036317;28;20032;-67
2023/04/21 07:49:03;;;;;;;23.90;12.32;;;;;;;;;;5060870;28;20500;-68
2023/04/21 07:51:30;;;;;;;24.88;12.02;;;;;;;;;;5059132;28;20080;-68
2023/04/21 07:53:56;;;;;;;20.02;12.63;;;;;;;;;;5058571;28;20044;-68
2023/04/21 07:56:22;;;;;;;20.65;12.70;;;;;;;;;;5054367;28;20481;-68
2023/04/21 07:58:49;;;;;;;22.70;12.57;;;;;;;;;;5055988;28;20055;-67
2023/04/21 08:01:15;;;;;;;21.13;11.32;;;;;;;;;;5060380;28;20037;-68
2023/04/21 08:03:41;;;;;;;19.58;11.45;;;;;;;;;;5062582;28;20115;-67
2023/04/21 08:06:07;;;;;;;21.95;12.18;;;;;;;;;;5062853;28;20384;-68
2023/04/21 08:08:34;;;;;;;22.13;12.18;;;;;;;;;;5062742;28;20493;-68
2023/04/21 08:11:00;;;;;;;20.13;11.85;;;;;;;;;;5057071;28;20082;-64
2023/04/21 08:13:27;;;;;;;25.17;12.93;;;;;;;;;;5056984;28;20774;-68
2023/04/21 08:15:53;;;;;;;19.63;11.50;;;;;;;;;;5059931;28;20049;-67
2023/04/21 08:18:20;;;;;;;19.67;12.55;;;;;;;;;;5027243;28;20127;-70
2023/04/21 08:20:46;;;;;;;21.98;12.10;;;;;;;;;;5044337;28;20064;-70
2023/04/21 08:23:14;;;;;;;19.23;11.55;;;;;;;;;;5062746;28;20105;-70
2023/04/21 08:25:40;;;;;;;18.00;12.32;;;;;;;;;;5063479;28;20564;-70
2023/04/21 08:28:06;;;;;;;23.92;11.60;;;;;;;;;;5044709;28;20064;-70
2023/04/21 08:30:33;;;;;;;25.33;12.73;;;;;;;;;;5063269;28;20055;-70
2023/04/21 08:32:59;;;;;;;31.55;13.32;;;;;;;;;;5063734;28;20037;-69
2023/04/21 08:35:25;;;;;;;20.40;10.77;;;;;;;;;;5062162;28;20493;-70
2023/04/21 08:37:51;;;;;;;20.02;11.02;;;;;;;;;;5062414;28;20395;-70
2023/04/21 08:40:18;;;;;;;16.23;10.90;;;;;;;;;;5062906;28;20067;-70
2023/04/21 08:42:44;;;;;;;15.48;10.25;;;;;;;;;;5060150;28;20508;-70
2023/04/21 08:45:11;;;;;;;18.35;12.15;;;;;;;;;;5060671;28;20318;-71
2023/04/21 08:47:39;;;;;;;17.10;11.45;;;;;;;;;;5061137;28;20051;-70
2023/04/21 08:50:07;;;;;;;19.80;11.85;;;;;;;;;;5039690;28;20055;-71
2023/04/21 08:52:33;;;;;;;22.05;10.85;;;;;;;;;;5059512;28;20061;-70
2023/04/21 08:55:00;;;;;;;22.67;11.55;;;;;;;;;;5056306;28;20052;-70
2023/04/21 08:57:26;;;;;;;19.42;10.38;;;;;;;;;;5056130;28;20443;-70
2023/04/21 08:59:52;;;;;;;18.27;10.65;;;;;;;;;;5059912;28;20044;-70
2023/04/21 09:02:19;;;;;;;22.60;11.20;;;;;;;;;;5057731;28;21520;-70
2023/04/21 09:04:46;;;;;;;23.48;11.15;;;;;;;;;;5060050;28;20044;-71
2023/04/21 09:07:12;;;;;;;20.13;11.85;;;;;;;;;;5061082;28;20048;-71
2023/04/21 09:09:51;;;;;;;21.42;10.32;;;;;;;;;;5057286;28;20066;-70
2023/04/21 09:12:18;;;;;;;18.83;10.60;;;;;;;;;;5059601;28;20103;-70
2023/04/21 09:14:44;;;;;;;20.73;11.40;;;;;;;;;;5043990;28;20049;-70
2023/04/21 09:17:10;;;;;;;22.67;10.90;;;;;;;;;;5044199;28;20132;-67
2023/04/21 09:19:36;;;;;;;19.92;11.13;;;;;;;;;;5057188;28;20056;-70
2023/04/21 09:22:02;;;;;;;16.00;10.77;;;;;;;;;;5043185;28;20171;-70
2023/04/21 09:24:28;;;;;;;24.00;10.90;;;;;;;;;;5039100;28;20080;-71
2023/04/21 09:26:54;;;;;;;24.27;11.32;;;;;;;;;;5039863;28;20036;-71
2023/04/21 09:29:22;;;;;;;21.98;11.18;;;;;;;;;;5040209;28;20363;-72
2023/04/21 09:31:50;;;;;;;22.73;10.32;;;;;;;;;;5039771;28;20110;-71
2023/04/21 09:34:18;;;;;;;15.82;10.55;;;;;;;;;;5058623;28;20049;-72
2023/04/21 09:36:46;;;;;;;19.60;10.25;;;;;;;;;;5062997;28;20492;-71
2023/04/21 09:39:12;;;;;;;20.70;10.75;;;;;;;;;;5053437;28;20079;-71
2023/04/21 09:41:38;;;;;;;19.50;10.38;;;;;;;;;;5039336;28;20040;-71
2023/04/21 09:44:05;;;;;;;19.35;10.15;;;;;;;;;;5053340;28;20037;-72
2023/04/21 09:46:32;;;;;;;24.13;9.73;;;;;;;;;;5051013;28;20079;-72
2023/04/21 09:49:00;;;;;;;23.35;9.25;;;;;;;;;;5042040;28;20581;-72
2023/04/21 09:51:26;;;;;;;17.52;10.20;;;;;;;;;;5063650;28;20098;-72
2023/04/21 09:53:55;;;;;;;18.20;10.32;;;;;;;;;;5039965;28;20071;-72
2023/04/21 09:56:24;;;;;;;18.80;9.20;;;;;;;;;;5043616;28;20044;-72
2023/04/21 09:58:53;;;;;;;19.88;10.10;;;;;;;;;;5057839;28;20052;-72
2023/04/21 10:01:19;;;;;;;15.63;9.25;;;;;;;;;;5061268;28;21507;-72
2023/04/21 10:03:47;;;;;;;20.75;9.50;;;;;;;;;;5042074;28;20055;-72
2023/04/21 10:06:14;;;;;;;18.45;8.88;;;;;;;;;;5058590;28;20509;-72
2023/04/21 10:08:40;;;;;;;14.38;9.57;;;;;;;;;;5058778;28;20040;-72
2023/04/21 10:11:07;;;;;;;17.40;9.55;;;;;;;;;;5061251;28;20040;-72
2023/04/21 10:13:33;;;;;;;21.30;9.40;;;;;;;;;;5039435;28;20074;-72
2023/04/21 10:16:04;;;;;;;18.05;8.77;;;;;;;;;;5060956;28;20075;-72
2023/04/21 10:18:30;;;;;;;17.67;9.32;;;;;;;;;;5044239;28;21018;-71
2023/04/21 10:20:57;;;;;;;15.77;9.35;;;;;;;;;;5057524;28;21403;-71
2023/04/21 10:23:31;;;;;;;18.83;9.07;;;;;;;;;;5038069;28;20041;-71
2023/04/21 10:26:02;;;;;;;16.83;8.93;;;;;;;;;;5060548;28;20164;-71
2023/04/21 10:28:41;;;;;;;12.10;8.40;;;;;;;;;;5056029;28;20124;-72
2023/04/21 10:31:20;;;;;;;18.45;9.65;;;;;;;;;;5045065;28;20036;-72
2023/04/21 10:34:06;;;;;;;20.08;9.50;;;;;;;;;;5067037;28;20440;-71
2023/04/21 10:36:34;;;;;;;19.08;10.60;;;;;;;;;;5067408;28;20045;-72
2023/04/21 10:39:02;;;;;;;16.90;8.85;;;;;;;;;;5049130;28;20097;-72
2023/04/21 10:41:29;;;;;;;19.02;9.10;;;;;;;;;;5065740;28;20404;-72
2023/04/21 10:44:00;;;;;;;16.35;10.05;;;;;;;;;;5061879;28;20356;-72
2023/04/21 10:46:33;;;;;;;16.17;8.55;;;;;;;;;;5046889;28;20040;-72
2023/04/21 10:49:06;;;;;;;19.08;7.75;;;;;;;;;;5063732;28;20057;-72
2023/04/21 10:51:32;;;;;;;21.05;8.82;;;;;;;;;;5045495;28;20424;-72
2023/04/21 10:54:00;;;;;;;14.05;7.88;;;;;;;;;;5045726;28;20040;-72
2023/04/21 10:56:26;;;;;;;11.73;7.68;;;;;;;;;;5043709;28;20106;-72
2023/04/21 10:58:52;;;;;;;15.07;8.50;;;;;;;;;;5065548;28;20032;-72
2023/04/21 11:01:18;;;;;;;15.52;7.68;;;;;;;;;;5046413;28;20451;-72
2023/04/21 11:03:45;;;;;;;14.70;8.57;;;;;;;;;;5064905;28;20043;-70
2023/04/21 11:06:17;;;;;;;16.85;8.43;;;;;;;;;;5065434;28;20412;-69
2023/04/21 11:08:58;;;;;;;15.33;8.10;;;;;;;;;;5046295;28;20045;-69
2023/04/21 11:11:25;;;;;;;16.23;8.07;;;;;;;;;;5061768;28;20389;-69
2023/04/21 11:13:53;;;;;;;20.23;8.43;;;;;;;;;;5060534;28;20396;-69
2023/04/21 11:16:19;;;;;;;12.13;9.07;;;;;;;;;;5038932;28;21429;-70
2023/04/21 11:18:45;;;;;;;21.05;9.35;;;;;;;;;;5037552;28;20067;-70
2023/04/21 11:21:12;;;;;;;19.00;8.85;;;;;;;;;;5054600;28;20091;-70
2023/04/21 11:23:40;;;;;;;12.20;8.13;;;;;;;;;;5057931;28;20070;-70
2023/04/21 11:26:06;;;;;;;13.20;8.75;;;;;;;;;;5038738;28;20052;-69
2023/04/21 11:28:32;;;;;;;17.92;8.98;;;;;;;;;;5055488;28;20037;-70
2023/04/21 11:30:58;;;;;;;12.35;7.68;;;;;;;;;;5054277;28;20100;-70
2023/04/21 11:33:28;;;;;;;17.80;7.75;;;;;;;;;;5056754;28;20525;-70
2023/04/21 11:35:57;;;;;;;17.42;7.95;;;;;;;;;;5059117;28;20076;-70
2023/04/21 11:38:24;;;;;;;16.10;8.82;;;;;;;;;;5059471;28;20404;-70
2023/04/21 11:40:51;;;;;;;15.13;8.77;;;;;;;;;;5058228;28;20052;-70
2023/04/21 11:43:17;;;;;;;16.38;7.80;;;;;;;;;;5037138;28;20091;-70
2023/04/21 11:45:43;;;;;;;14.05;8.18;;;;;;;;;;5057607;28;20041;-70
2023/04/21 11:48:15;;;;;;;14.55;8.73;;;;;;;;;;5056524;28;20052;-70
2023/04/21 11:50:46;;;;;;;14.85;8.00;;;;;;;;;;5055999;28;20190;-69
2023/04/21 11:53:14;;;;;;;16.90;7.45;;;;;;;;;;5055038;28;20397;-70
2023/04/21 11:55:43;;;;;;;16.17;9.30;;;;;;;;;;5039972;28;20407;-70
2023/04/21 11:58:11;;;;;;;17.08;8.63;;;;;;;;;;5058603;28;20076;-70
2023/04/21 12:00:37;;;;;;;14.63;7.30;;;;;;;;;;5039755;28;20056;-70
2023/04/21 12:03:08;;;;;;;15.80;7.45;;;;;;;;;;5056691;28;20040;-70
2023/04/21 12:05:35;;;;;;;13.60;7.18;;;;;;;;;;5037326;28;20065;-70
2023/04/21 12:08:02;;;;;;;14.13;8.05;;;;;;;;;;5054914;28;20052;-70
2023/04/21 12:10:29;;;;;;;13.85;6.90;;;;;;;;;;5056595;28;20044;-70
2023/04/21 12:12:55;;;;;;;10.45;6.75;;;;;;;;;;5036994;28;20049;-70
2023/04/21 12:15:22;;;;;;;14.40;7.15;;;;;;;;;;5059353;28;20131;-70
2023/04/21 12:17:49;;;;;;;13.95;6.40;;;;;;;;;;5058600;28;20171;-70
2023/04/21 12:20:16;;;;;;;14.07;6.43;;;;;;;;;;5056087;28;20057;-70
2023/04/21 12:22:42;;;;;;;15.18;6.60;;;;;;;;;;5058144;28;20313;-70
2023/04/21 12:25:09;;;;;;;15.43;6.68;;;;;;;;;;5057329;28;20047;-70
2023/04/21 12:27:35;;;;;;;10.73;6.35;;;;;;;;;;5058099;28;20114;-70
2023/04/21 12:30:02;;;;;;;12.38;6.15;;;;;;;;;;5035495;28;20065;-70
2023/04/21 12:32:29;;;;;;;9.65;6.00;;;;;;;;;;5032555;28;20067;-70
2023/04/21 12:34:55;;;;;;;14.13;5.63;;;;;;;;;;5031909;28;20531;-69
2023/04/21 12:37:21;;;;;;;15.48;5.72;;;;;;;;;;5037616;28;20048;-70
2023/04/21 12:39:48;;;;;;;19.85;5.85;;;;;;;;;;5052470;28;20107;-70
2023/04/21 12:42:14;;;;;;;15.55;5.43;;;;;;;;;;5037467;28;20173;-70
2023/04/21 12:44:40;;;;;;;11.68;5.68;;;;;;;;;;5043029;28;20047;-74
2023/04/21 12:47:06;;;;;;;10.45;4.55;;;;;;;;;;5056529;28;20134;-69
2023/04/21 12:49:32;;;;;;;17.08;5.00;;;;;;;;;;5050447;28;20053;-69
2023/04/21 12:51:59;;;;;;;16.42;4.68;;;;;;;;;;5055351;28;21597;-69
2023/04/21 12:54:25;;;;;;;12.82;4.78;;;;;;;;;;5052949;28;20510;-69
2023/04/21 12:56:51;;;;;;;15.30;4.00;;;;;;;;;;5053343;28;20357;-69
2023/04/21 12:59:17;;;;;;;9.90;3.92;;;;;;;;;;5055095;28;20044;-69
2023/04/21 13:01:43;;;;;;;11.57;3.95;;;;;;;;;;5035443;28;20485;-69
2023/04/21 13:04:09;;;;;;;9.95;3.60;;;;;;;;;;5059485;28;20045;-69
2023/04/21 13:06:37;;;;;;;9.50;4.03;;;;;;;;;;5057683;28;20041;-69
2023/04/21 13:09:04;;;;;;;13.93;4.13;;;;;;;;;;5035061;28;20481;-69
2023/04/21 13:11:30;;;;;;;12.80;3.47;;;;;;;;;;5059894;28;20040;-69
2023/04/21 13:13:57;;;;;;;11.15;3.88;;;;;;;;;;5057217;28;20060;-69
2023/04/21 13:16:23;;;;;;;11.65;3.95;;;;;;;;;;5057061;28;20094;-69
2023/04/21 13:18:49;;;;;;;10.63;3.85;;;;;;;;;;5037457;28;20040;-69
2023/04/21 13:21:15;;;;;;;14.40;4.15;;;;;;;;;;5057424;28;20053;-69
2023/04/21 13:23:42;;;;;;;10.40;4.68;;;;;;;;;;5037951;28;20447;-69
2023/04/21 13:26:08;;;;;;;9.40;3.42;;;;;;;;;;5057985;28;20043;-69
2023/04/21 13:28:35;;;;;;;9.13;4.35;;;;;;;;;;5056893;28;20114;-69
2023/04/21 13:31:01;;;;;;;11.85;4.13;;;;;;;;;;5034622;28;20067;-69
2023/04/21 13:33:27;;;;;;;15.77;4.55;;;;;;;;;;5058844;28;20056;-69
2023/04/21 13:35:53;;;;;;;8.27;4.15;;;;;;;;;;5058946;28;20115;-69
2023/04/21 13:38:20;;;;;;;12.73;4.35;;;;;;;;;;5058302;28;20041;-69
2023/04/21 13:40:47;;;;;;;13.18;4.07;;;;;;;;;;5058908;28;20047;-69
2023/04/21 13:43:14;;;;;;;11.20;4.15;;;;;;;;;;5039510;28;20044;-69
2023/04/21 13:45:40;;;;;;;13.63;4.07;;;;;;;;;;5056122;28;20051;-69
2023/04/21 13:48:06;;;;;;;9.88;4.40;;;;;;;;;;5040489;28;20483;-69
2023/04/21 13:50:33;;;;;;;11.82;4.45;;;;;;;;;;5058133;28;20037;-69
2023/04/21 13:52:59;;;;;;;8.40;3.67;;;;;;;;;;5060188;28;20436;-69
2023/04/21 13:55:25;;;;;;;15.10;4.90;;;;;;;;;;5064459;28;20076;-69
2023/04/21 13:57:52;;;;;;;8.38;3.28;;;;;;;;;;5061716;28;20040;-69
2023/04/21 14:00:18;;;;;;;10.65;3.17;;;;;;;;;;5061995;28;20152;-70
2023/04/21 14:02:44;;;;;;;9.25;3.20;;;;;;;;;;5059323;28;20076;-69
2023/04/21 14:05:10;;;;;;;12.20;3.42;;;;;;;;;;5042676;28;20093;-69
2023/04/21 14:07:37;;;;;;;15.60;3.53;;;;;;;;;;5059042;28;20048;-69
2023/04/21 14:10:03;;;;;;;11.90;3.30;;;;;;;;;;5059300;28;20040;-69
2023/04/21 14:12:29;;;;;;;12.60;3.92;;;;;;;;;;5040055;28;20124;-69
2023/04/21 14:14:55;;;;;;;14.73;3.90;;;;;;;;;;5063476;28;20041;-69
2023/04/21 14:17:22;;;;;;;11.50;3.50;;;;;;;;;;5058152;28;20094;-69